Fountain, Colorado
Current Conditions -  °F | °C
As of 10:58 AM on Saturday 20 Dec 2014 (Local Time) from KFCS Reporting Station
Clear Clear  
Wind Chill: 47°   Ceiling: Unl
Heat Index: 47°   Visibility: 10mi
Dew Point: 14°   Wind: 1mph
Humidity: 27%   Direction: NA
Pressure: 29.99"   Gusts: NA
Location:  38.68°N, 104.7°W
Report Text: KFCS 201758Z AUTO VRB01KT 10SM CLR 08/M10 A2999 RMK AO2 SLP185 T00841099 10084 21055 55006
Loading
Personal Weather Stations






























Interactive Weather Map New forecast layout! Learn more

10-Day Weather Forecast

Advertisements
Track Severe Weather on mobile